createdAt,value
2023-04-19T00:00:01.121Z,38.23
2023-04-19T00:01:01.134Z,38.22
2023-04-19T00:02:01.218Z,38.24
2023-04-19T00:03:01.286Z,38.21
2023-04-19T00:04:01.286Z,38.20
2023-04-19T00:05:01.458Z,38.23
2023-04-19T00:06:01.169Z,38.23
2023-04-19T00:07:01.158Z,38.25
2023-04-19T00:08:01.160Z,38.24
2023-04-19T00:09:01.171Z,38.20
2023-04-19T00:10:01.174Z,38.21
2023-04-19T00:11:01.174Z,38.19
2023-04-19T00:12:01.193Z,38.21
2023-04-19T00:13:01.175Z,38.21
2023-04-19T00:14:01.173Z,38.20
2023-04-19T00:15:01.174Z,38.21
2023-04-19T00:16:01.190Z,38.19
2023-04-19T00:17:01.347Z,38.19
2023-04-19T00:18:01.188Z,38.17
2023-04-19T00:19:01.196Z,38.23
2023-04-19T00:20:01.204Z,38.20
2023-04-19T00:21:01.209Z,38.21
2023-04-19T00:22:01.228Z,38.25
2023-04-19T00:23:01.225Z,38.21
2023-04-19T00:24:01.247Z,38.24
2023-04-19T00:25:01.230Z,38.19
2023-04-19T00:26:01.223Z,38.20
2023-04-19T00:27:01.232Z,38.23
2023-04-19T00:28:01.227Z,38.19
2023-04-19T00:29:01.242Z,38.20
2023-04-19T00:30:01.238Z,38.19
2023-04-19T00:31:01.293Z,38.17
2023-04-19T00:32:01.244Z,38.19
2023-04-19T00:33:01.299Z,38.21
2023-04-19T00:34:01.258Z,38.24
2023-04-19T00:35:01.282Z,38.16
2023-04-19T00:36:01.263Z,38.18
2023-04-19T00:37:01.272Z,38.17
2023-04-19T00:38:01.277Z,38.19
2023-04-19T00:39:01.284Z,38.21
2023-04-19T00:40:01.274Z,38.20
2023-04-19T00:41:01.277Z,38.16
2023-04-19T00:42:01.303Z,38.23
2023-04-19T00:43:01.281Z,38.23
2023-04-19T00:44:01.286Z,38.20
2023-04-19T00:45:01.303Z,38.20
2023-04-19T00:46:01.316Z,38.21
2023-04-19T00:47:01.291Z,38.19
2023-04-19T00:48:01.450Z,38.18
2023-04-19T00:49:01.310Z,38.16
2023-04-19T00:50:01.311Z,38.21
2023-04-19T00:51:01.312Z,38.21
2023-04-19T00:52:01.313Z,38.21
2023-04-19T00:53:01.394Z,38.22
2023-04-19T00:54:01.325Z,38.17
2023-04-19T00:55:01.329Z,38.18
2023-04-19T00:56:01.333Z,38.19
2023-04-19T00:57:01.441Z,38.23
2023-04-19T00:58:01.333Z,38.19
2023-04-19T00:59:01.345Z,38.20
2023-04-19T01:00:01.352Z,38.22
2023-04-19T01:01:01.453Z,38.20
2023-04-19T01:02:01.760Z,38.19
2023-04-19T01:03:01.555Z,38.19
2023-04-19T01:04:01.421Z,38.13
2023-04-19T01:05:01.345Z,38.16
2023-04-19T01:06:01.439Z,38.21
2023-04-19T01:07:01.361Z,38.18
2023-04-19T01:08:01.356Z,38.20
2023-04-19T01:09:01.397Z,38.15
2023-04-19T01:10:01.382Z,38.25
2023-04-19T01:11:01.404Z,38.18
2023-04-19T01:12:01.385Z,38.16
2023-04-19T01:13:01.379Z,38.17
2023-04-19T01:14:01.402Z,38.19
2023-04-19T01:15:01.411Z,38.18
2023-04-19T01:16:01.458Z,38.18
2023-04-19T01:17:01.442Z,38.21
2023-04-19T01:18:01.449Z,38.20
2023-04-19T01:19:01.422Z,38.12
2023-04-19T01:20:01.414Z,38.22
2023-04-19T01:21:01.454Z,38.16
2023-04-19T01:22:01.421Z,38.20
2023-04-19T01:23:01.437Z,38.26
2023-04-19T01:24:01.474Z,38.24
2023-04-19T01:25:01.455Z,38.21
2023-04-19T01:26:01.523Z,38.22
2023-04-19T01:27:01.467Z,38.19
2023-04-19T01:28:01.510Z,38.17
2023-04-19T01:29:01.468Z,38.22
2023-04-19T01:30:01.476Z,38.20
2023-04-19T01:31:01.547Z,38.19
2023-04-19T01:32:01.479Z,38.17
2023-04-19T01:33:01.562Z,38.18
2023-04-19T01:34:01.477Z,38.21
2023-04-19T01:35:01.481Z,38.19
2023-04-19T01:36:01.525Z,38.17
2023-04-19T01:37:01.509Z,38.19
2023-04-19T01:38:01.487Z,38.17
2023-04-19T01:39:01.513Z,38.20
2023-04-19T01:40:01.516Z,38.22
2023-04-19T01:41:01.491Z,38.21
2023-04-19T01:42:01.500Z,38.20
2023-04-19T01:43:01.498Z,38.17
2023-04-19T01:44:01.503Z,38.20
2023-04-19T01:45:01.507Z,38.19
2023-04-19T01:46:01.507Z,38.23
2023-04-19T01:47:01.545Z,38.22
2023-04-19T01:48:01.541Z,38.25
2023-04-19T01:49:01.558Z,38.24
2023-04-19T01:50:01.534Z,38.27
2023-04-19T01:51:01.536Z,38.28
2023-04-19T01:52:01.549Z,37.90
2023-04-19T01:53:01.597Z,37.99
2023-04-19T01:54:01.557Z,37.85
2023-04-19T01:55:01.555Z,37.87
2023-04-19T01:56:01.558Z,37.77
2023-04-19T01:57:01.584Z,37.73
2023-04-19T01:58:01.575Z,37.82
2023-04-19T01:59:01.590Z,38.07
2023-04-19T02:00:01.648Z,38.19
2023-04-19T02:01:01.626Z,38.15
2023-04-19T02:02:01.685Z,38.05
2023-04-19T02:03:01.721Z,38.17
2023-04-19T02:04:01.768Z,38.20
2023-04-19T02:05:01.683Z,38.18
2023-04-19T02:06:01.661Z,38.14
2023-04-19T02:07:01.674Z,38.10
2023-04-19T02:08:01.762Z,38.14
2023-04-19T02:09:01.710Z,38.16
2023-04-19T02:10:01.760Z,38.14
2023-04-19T02:11:01.717Z,38.12
2023-04-19T02:12:01.728Z,38.09
2023-04-19T02:13:01.742Z,38.09
2023-04-19T02:14:01.776Z,38.06
2023-04-19T02:15:01.769Z,38.07
2023-04-19T02:16:01.807Z,38.07
2023-04-19T02:17:01.796Z,38.04
2023-04-19T02:18:01.877Z,38.08
2023-04-19T02:19:01.811Z,38.12
2023-04-19T02:20:01.818Z,38.09
2023-04-19T02:21:01.830Z,38.10
2023-04-19T02:22:01.859Z,38.11
2023-04-19T02:23:01.857Z,38.12
2023-04-19T02:24:01.912Z,38.13
2023-04-19T02:25:01.973Z,38.16
2023-04-19T02:26:01.873Z,38.12
2023-04-19T02:27:01.893Z,38.14
2023-04-19T02:28:01.884Z,38.12
2023-04-19T02:29:01.901Z,38.14
2023-04-19T02:30:01.904Z,38.10
2023-04-19T02:31:01.901Z,38.13
2023-04-19T02:32:01.993Z,38.12
2023-04-19T02:33:01.996Z,38.09
2023-04-19T02:34:01.938Z,38.12
2023-04-19T02:35:01.908Z,38.13
2023-04-19T02:36:01.934Z,38.10
2023-04-19T02:37:01.975Z,38.11
2023-04-19T02:38:01.933Z,37.96
2023-04-19T02:39:01.936Z,37.79
2023-04-19T02:40:01.942Z,38.04
2023-04-19T02:41:01.971Z,38.03
2023-04-19T02:42:01.958Z,38.04
2023-04-19T02:43:01.964Z,37.99
2023-04-19T02:44:02.081Z,37.78
2023-04-19T02:45:01.999Z,37.74
2023-04-19T02:46:02.106Z,37.71
2023-04-19T02:47:01.997Z,37.70
2023-04-19T02:48:02.007Z,37.68
2023-04-19T02:49:02.005Z,37.68
2023-04-19T02:50:02.033Z,37.64
2023-04-19T02:51:02.038Z,37.67
2023-04-19T02:52:02.043Z,37.64
2023-04-19T02:53:02.065Z,37.65
2023-04-19T02:54:02.059Z,37.70
2023-04-19T02:55:02.075Z,37.70
2023-04-19T02:56:02.090Z,37.65
2023-04-19T02:57:02.088Z,37.65
2023-04-19T02:58:02.126Z,37.67
2023-04-19T02:59:02.106Z,37.92
2023-04-19T03:00:02.148Z,38.01
2023-04-19T03:01:02.157Z,38.03
2023-04-19T03:02:02.141Z,37.98
2023-04-19T03:03:02.272Z,38.00
2023-04-19T03:04:02.157Z,37.99
2023-04-19T03:05:02.161Z,37.98
2023-04-19T03:06:02.157Z,37.97
2023-04-19T03:07:02.175Z,37.96
2023-04-19T03:08:02.179Z,37.99
2023-04-19T03:09:02.191Z,38.02
2023-04-19T03:10:02.183Z,38.01
2023-04-19T03:11:02.202Z,38.02
2023-04-19T03:12:02.208Z,38.02
2023-04-19T03:13:02.222Z,38.00
2023-04-19T03:14:02.226Z,38.01
2023-04-19T03:15:02.248Z,38.06
2023-04-19T03:16:02.280Z,38.02
2023-04-19T03:17:02.248Z,38.04
2023-04-19T03:18:02.263Z,38.05
2023-04-19T03:19:02.259Z,38.07
2023-04-19T03:20:02.270Z,38.09
2023-04-19T03:21:02.268Z,38.06
2023-04-19T03:22:02.267Z,38.05
2023-04-19T03:23:02.275Z,38.08
2023-04-19T03:24:02.375Z,38.06
2023-04-19T03:25:02.278Z,38.09
2023-04-19T03:26:02.294Z,38.10
2023-04-19T03:27:02.312Z,38.09
2023-04-19T03:28:02.360Z,38.08
2023-04-19T03:29:02.296Z,38.11
2023-04-19T03:30:02.326Z,38.12
2023-04-19T03:31:02.318Z,38.14
2023-04-19T03:32:02.319Z,38.14
2023-04-19T03:33:02.352Z,38.19
2023-04-19T03:34:02.369Z,38.16
2023-04-19T03:35:02.340Z,38.18
2023-04-19T03:36:02.354Z,38.18
2023-04-19T03:37:02.371Z,38.18
2023-04-19T03:38:02.363Z,38.15
2023-04-19T03:39:02.357Z,38.18
2023-04-19T03:40:02.357Z,38.18
2023-04-19T03:41:02.399Z,38.20
2023-04-19T03:42:02.372Z,38.19
2023-04-19T03:43:02.455Z,38.18
2023-04-19T03:44:02.386Z,38.19
2023-04-19T03:45:02.388Z,38.19
2023-04-19T03:46:02.431Z,38.18
2023-04-19T03:47:02.404Z,38.18
2023-04-19T03:48:03.079Z,38.21
2023-04-19T03:49:02.430Z,38.22
2023-04-19T03:50:02.426Z,38.20
2023-04-19T03:51:02.409Z,38.23
2023-04-19T03:52:02.411Z,38.24
2023-04-19T03:53:02.420Z,38.24
2023-04-19T03:54:02.419Z,38.23
2023-04-19T03:55:02.437Z,38.24
2023-04-19T03:56:02.440Z,38.21
2023-04-19T03:57:02.443Z,38.26
2023-04-19T03:58:02.436Z,38.24
2023-04-19T03:59:02.467Z,38.24
2023-04-19T04:00:02.466Z,38.26
2023-04-19T04:01:02.460Z,38.26
2023-04-19T04:02:02.613Z,38.26
2023-04-19T04:03:02.643Z,38.25
2023-04-19T04:04:04.812Z,38.26
2023-04-19T04:05:02.653Z,38.25
2023-04-19T04:06:02.374Z,38.25
2023-04-19T04:07:02.320Z,38.27
2023-04-19T04:08:02.277Z,38.27
2023-04-19T04:09:02.230Z,38.27
2023-04-19T04:10:02.228Z,38.29
2023-04-19T04:11:02.121Z,38.27
2023-04-19T04:12:02.114Z,38.28
2023-04-19T04:13:02.009Z,38.30
2023-04-19T04:14:01.958Z,38.31
2023-04-19T04:15:01.928Z,38.29
2023-04-19T04:16:01.892Z,38.29
2023-04-19T04:17:01.802Z,38.30
2023-04-19T04:18:01.773Z,38.28
2023-04-19T04:19:01.827Z,38.30
2023-04-19T04:20:01.676Z,38.29
2023-04-19T04:21:01.602Z,38.32
2023-04-19T04:22:01.567Z,38.33
2023-04-19T04:23:01.514Z,38.31
2023-04-19T04:24:01.532Z,38.32
2023-04-19T04:25:01.447Z,38.33
2023-04-19T04:26:01.408Z,38.35
2023-04-19T04:27:01.361Z,38.36
2023-04-19T04:28:01.276Z,38.34
2023-04-19T04:29:01.239Z,38.36
2023-04-19T04:30:01.208Z,38.38
2023-04-19T04:31:01.154Z,38.35
2023-04-19T04:32:01.181Z,38.38
2023-04-19T04:33:01.165Z,38.37
2023-04-19T04:34:01.046Z,38.38
2023-04-19T04:35:01.008Z,38.37
2023-04-19T04:36:00.964Z,38.37
2023-04-19T04:37:00.906Z,38.37
2023-04-19T04:38:01.930Z,38.38
2023-04-19T04:39:00.825Z,38.40
2023-04-19T04:40:00.783Z,38.40
2023-04-19T04:41:00.725Z,38.42
2023-04-19T04:42:00.710Z,38.40
2023-04-19T04:43:00.648Z,38.41
2023-04-19T04:44:12.228Z,38.43
2023-04-19T04:45:01.553Z,38.44
2023-04-19T04:46:00.521Z,38.42
2023-04-19T04:47:00.466Z,38.42
2023-04-19T04:48:00.464Z,38.44
2023-04-19T04:49:00.385Z,38.45
2023-04-19T04:50:00.343Z,38.42
2023-04-19T04:51:00.323Z,38.43
2023-04-19T04:52:00.249Z,38.43
2023-04-19T04:53:00.209Z,38.44
2023-04-19T04:54:00.182Z,38.44
2023-04-19T04:55:00.155Z,38.46
2023-04-19T04:56:00.130Z,38.44
2023-04-19T04:57:00.167Z,38.45
2023-04-19T04:58:00.174Z,38.44
2023-04-19T04:59:00.151Z,38.43
2023-04-19T05:00:00.154Z,38.43
2023-04-19T05:01:00.201Z,38.45
2023-04-19T05:02:00.188Z,38.49
2023-04-19T05:03:00.330Z,38.55
2023-04-19T05:04:00.206Z,38.79
2023-04-19T05:05:00.165Z,38.69
2023-04-19T05:06:00.182Z,38.63
2023-04-19T05:07:00.190Z,38.62
2023-04-19T05:08:00.203Z,38.82
2023-04-19T05:09:00.222Z,38.83
2023-04-19T05:10:00.170Z,39.01
2023-04-19T05:11:00.115Z,38.90
2023-04-19T05:12:00.103Z,39.72
2023-04-19T05:13:00.043Z,39.87
2023-04-19T05:13:59.988Z,39.84
2023-04-19T05:14:59.954Z,39.69
2023-04-19T05:15:59.934Z,39.66
2023-04-19T05:16:59.862Z,39.63
2023-04-19T05:17:59.863Z,39.67
2023-04-19T05:18:59.802Z,39.65
2023-04-19T05:19:59.798Z,39.97
2023-04-19T05:20:59.819Z,39.83
2023-04-19T05:21:59.876Z,39.94
2023-04-19T05:22:59.884Z,40.02
2023-04-19T05:23:59.935Z,40.62
2023-04-19T05:25:00.056Z,40.31
2023-04-19T05:26:00.933Z,40.50
2023-04-19T05:26:59.893Z,40.55
2023-04-19T05:28:00.640Z,40.69
2023-04-19T05:28:59.840Z,40.51
2023-04-19T05:30:01.214Z,40.23
2023-04-19T05:30:59.813Z,40.69
2023-04-19T05:31:59.711Z,40.75
2023-04-19T05:33:01.763Z,40.54
2023-04-19T05:33:59.758Z,40.74
2023-04-19T05:34:59.780Z,40.65
2023-04-19T05:35:59.790Z,40.54
2023-04-19T05:36:59.805Z,40.39
2023-04-19T05:37:59.828Z,39.69
2023-04-19T05:38:59.887Z,39.11
2023-04-19T05:39:59.874Z,39.10
2023-04-19T05:40:59.881Z,38.88
2023-04-19T05:41:59.983Z,38.89
2023-04-19T05:42:59.899Z,38.63
2023-04-19T05:43:59.936Z,38.63
2023-04-19T05:44:59.965Z,38.52
2023-04-19T05:45:59.986Z,38.43
2023-04-19T05:46:59.978Z,38.30
2023-04-19T05:48:00.053Z,38.28
2023-04-19T05:49:00.016Z,38.12
2023-04-19T05:50:00.043Z,38.11
2023-04-19T05:51:00.063Z,38.07
2023-04-19T05:52:00.064Z,38.32
2023-04-19T05:53:00.097Z,38.25
2023-04-19T05:54:00.163Z,38.51
2023-04-19T05:55:00.195Z,38.58
2023-04-19T05:56:00.191Z,38.16
2023-04-19T05:57:00.203Z,38.60
2023-04-19T05:58:00.198Z,38.71
2023-04-19T05:59:00.261Z,38.29
2023-04-19T06:01:00.294Z,38.78
2023-04-19T06:02:01.615Z,38.22
2023-04-19T06:03:00.448Z,38.08
2023-04-19T06:04:00.478Z,38.57
2023-04-19T06:05:02.732Z,38.26
2023-04-19T06:06:00.337Z,38.16
2023-04-19T06:07:00.196Z,38.31
2023-04-19T06:08:02.894Z,38.17
2023-04-19T06:09:00.134Z,38.11
2023-04-19T06:10:00.644Z,38.44
2023-04-19T06:11:02.408Z,37.94
2023-04-19T06:12:00.981Z,38.29
2023-04-19T06:12:59.932Z,37.92
2023-04-19T06:13:59.901Z,38.29
2023-04-19T06:14:59.839Z,38.10
2023-04-19T06:16:00.738Z,38.22
2023-04-19T06:16:59.840Z,37.82
2023-04-19T06:18:00.712Z,37.84
2023-04-19T06:18:59.652Z,37.91
2023-04-19T06:19:59.691Z,38.04
2023-04-19T06:20:59.575Z,37.86
2023-04-19T06:21:59.514Z,38.09
2023-04-19T06:22:59.477Z,38.02
2023-04-19T06:23:59.439Z,38.67
2023-04-19T06:24:59.396Z,38.69
2023-04-19T06:25:59.400Z,38.77
2023-04-19T06:26:59.427Z,38.79
2023-04-19T06:27:59.429Z,38.68
2023-04-19T06:28:59.478Z,38.93
2023-04-19T06:29:59.466Z,39.28
2023-04-19T06:30:59.476Z,39.32
2023-04-19T06:31:59.574Z,39.20
2023-04-19T06:32:59.565Z,39.27
2023-04-19T06:33:59.689Z,39.24
2023-04-19T06:34:59.545Z,39.19
2023-04-19T06:35:59.546Z,39.18
2023-04-19T06:36:59.554Z,39.18
2023-04-19T06:37:59.557Z,39.21
2023-04-19T06:38:59.583Z,39.24
2023-04-19T06:39:59.580Z,39.24
2023-04-19T06:41:00.214Z,39.22
2023-04-19T06:41:59.592Z,39.25
2023-04-19T06:42:59.770Z,39.28
2023-04-19T06:43:59.736Z,39.32
2023-04-19T06:44:59.609Z,39.28
2023-04-19T06:45:59.653Z,39.24
2023-04-19T06:46:59.639Z,39.24
2023-04-19T06:47:59.655Z,39.23
2023-04-19T06:48:59.651Z,39.25
2023-04-19T06:49:59.670Z,39.25
2023-04-19T06:50:59.675Z,39.29
2023-04-19T06:51:59.688Z,39.26
2023-04-19T06:52:59.692Z,39.22
2023-04-19T06:53:59.709Z,39.24
2023-04-19T06:55:00.666Z,39.27
2023-04-19T06:55:59.613Z,39.25
2023-04-19T06:56:59.866Z,39.27
2023-04-19T06:57:59.521Z,39.30
2023-04-19T06:58:59.466Z,39.25
2023-04-19T06:59:59.423Z,39.23
2023-04-19T07:00:59.394Z,39.21
2023-04-19T07:01:59.402Z,39.24
2023-04-19T07:02:59.385Z,39.22
2023-04-19T07:03:59.555Z,39.43
2023-04-19T07:04:59.251Z,39.47
2023-04-19T07:05:59.266Z,39.48
2023-04-19T07:06:59.276Z,39.49
2023-04-19T07:07:59.298Z,39.50
2023-04-19T07:08:59.310Z,39.43
2023-04-19T07:09:59.310Z,39.27
2023-04-19T07:10:59.316Z,39.49
2023-04-19T07:11:59.334Z,39.51
2023-04-19T07:12:59.344Z,39.64
2023-04-19T07:13:59.361Z,39.57
2023-04-19T07:14:59.373Z,39.66
2023-04-19T07:15:59.431Z,39.68
2023-04-19T07:16:59.381Z,40.17
2023-04-19T07:17:59.435Z,40.00
2023-04-19T07:19:00.353Z,40.63
2023-04-19T07:19:59.337Z,40.69
2023-04-19T07:20:59.274Z,41.01
2023-04-19T07:21:59.227Z,41.00
2023-04-19T07:22:59.172Z,40.95
2023-04-19T07:23:59.127Z,40.94
2023-04-19T07:24:59.080Z,40.18
2023-04-19T07:25:59.032Z,39.96
2023-04-19T07:26:58.981Z,39.91
2023-04-19T07:27:58.937Z,39.87
2023-04-19T07:28:58.888Z,39.93
2023-04-19T07:29:58.859Z,39.75
2023-04-19T07:30:58.848Z,39.92
2023-04-19T07:31:58.902Z,40.35
2023-04-19T07:32:58.807Z,40.37
2023-04-19T07:33:58.763Z,40.31
2023-04-19T07:34:58.719Z,40.28
2023-04-19T07:35:58.673Z,40.24
2023-04-19T07:36:58.624Z,40.08
2023-04-19T07:37:58.582Z,40.15
2023-04-19T07:38:58.529Z,40.25
2023-04-19T07:39:58.492Z,40.20
2023-04-19T07:40:58.447Z,40.26
2023-04-19T07:41:58.379Z,40.12
2023-04-19T07:42:58.328Z,40.15
2023-04-19T07:43:59.241Z,40.08
2023-04-19T07:44:58.232Z,39.93
2023-04-19T07:45:58.207Z,39.99
2023-04-19T07:46:58.266Z,40.10
2023-04-19T07:47:58.136Z,40.04
2023-04-19T07:48:58.033Z,40.11
2023-04-19T07:49:57.983Z,40.26
2023-04-19T07:50:57.930Z,40.29
2023-04-19T07:51:57.914Z,40.34
2023-04-19T07:52:58.769Z,40.37
2023-04-19T07:53:57.921Z,40.40
2023-04-19T07:54:57.922Z,40.40
2023-04-19T07:55:57.923Z,40.38
2023-04-19T07:56:58.744Z,40.40
2023-04-19T07:57:57.916Z,40.41
2023-04-19T07:59:07.523Z,40.42
2023-04-19T07:59:58.849Z,40.42
2023-04-19T08:00:57.867Z,40.40
2023-04-19T08:01:57.814Z,40.41
2023-04-19T08:02:57.925Z,40.40
2023-04-19T08:03:57.727Z,40.41
2023-04-19T08:04:57.631Z,40.40
2023-04-19T08:05:58.760Z,40.40
2023-04-19T08:06:57.441Z,40.38
2023-04-19T08:07:57.382Z,40.37
2023-04-19T08:08:57.329Z,40.36
2023-04-19T08:09:58.284Z,40.31
2023-04-19T08:11:00.164Z,40.39
2023-04-19T08:11:57.192Z,40.75
2023-04-19T08:13:04.489Z,41.24
2023-04-19T08:14:09.373Z,41.46
2023-04-19T08:15:06.776Z,42.70
2023-04-19T08:17:22.428Z,42.64
2023-04-19T08:17:57.943Z,43.33
2023-04-19T08:18:56.819Z,43.28
2023-04-19T08:19:56.769Z,42.15
2023-04-19T08:20:56.722Z,41.39
2023-04-19T08:21:56.674Z,40.13
2023-04-19T08:22:56.989Z,39.28
2023-04-19T08:23:56.608Z,38.95
2023-04-19T08:24:56.536Z,38.60
2023-04-19T08:25:56.528Z,38.46
2023-04-19T08:26:58.179Z,38.35
2023-04-19T08:27:56.392Z,38.16
2023-04-19T08:28:56.355Z,37.91
2023-04-19T08:29:56.327Z,37.12
2023-04-19T08:30:56.253Z,36.32
2023-04-19T08:31:56.315Z,36.47
2023-04-19T08:32:57.137Z,36.39
2023-04-19T08:33:56.106Z,36.57
2023-04-19T08:34:56.051Z,36.51
2023-04-19T08:35:56.016Z,36.79
2023-04-19T08:37:03.364Z,36.99
2023-04-19T08:37:56.900Z,38.03
2023-04-19T08:39:04.750Z,37.52
2023-04-19T08:39:56.785Z,37.92
2023-04-19T08:40:55.807Z,38.28
2023-04-19T08:42:02.739Z,37.58
2023-04-19T08:42:56.611Z,37.48
2023-04-19T08:43:55.564Z,37.57
2023-04-19T08:45:55.488Z,35.98
2023-04-19T08:46:55.393Z,35.62
2023-04-19T08:48:00.580Z,35.96
2023-04-19T08:48:56.299Z,36.36
2023-04-19T08:50:07.123Z,36.72
2023-04-19T08:51:05.065Z,37.27
2023-04-19T08:51:56.149Z,37.57
2023-04-19T08:53:00.596Z,37.98
2023-04-19T08:53:56.037Z,37.68
2023-04-19T08:54:54.987Z,37.01
2023-04-19T08:56:10.738Z,37.89
2023-04-19T08:56:55.969Z,38.40
2023-04-19T08:57:54.836Z,38.92
2023-04-19T08:59:20.640Z,39.20
2023-04-19T09:00:19.576Z,39.20
2023-04-19T09:01:33.047Z,39.21
2023-04-19T09:02:20.622Z,35.84
2023-04-19T09:03:19.598Z,35.85
2023-04-19T09:04:34.437Z,36.36
2023-04-19T09:05:20.570Z,36.98
2023-04-19T09:06:19.723Z,36.58
2023-04-19T09:07:19.435Z,36.83
2023-04-19T09:08:19.406Z,38.24
2023-04-19T09:10:19.374Z,38.31
2023-04-19T09:11:19.347Z,38.49
2023-04-19T09:12:19.332Z,38.59
2023-04-19T09:13:19.309Z,39.01
2023-04-19T09:14:19.294Z,39.34
2023-04-19T09:15:20.281Z,39.23
2023-04-19T09:16:19.310Z,39.79
2023-04-19T09:17:19.300Z,40.27
2023-04-19T09:18:19.262Z,40.26
2023-04-19T09:19:24.045Z,40.10
2023-04-19T09:20:20.291Z,40.49
2023-04-19T09:21:20.795Z,40.88
2023-04-19T09:22:19.287Z,41.24
2023-04-19T09:23:19.211Z,41.13
2023-04-19T09:24:19.199Z,40.93
2023-04-19T09:26:23.421Z,40.93
2023-04-19T09:27:19.225Z,40.76
2023-04-19T09:28:19.206Z,40.77
2023-04-19T09:29:19.466Z,40.77
2023-04-19T09:30:28.145Z,40.71
2023-04-19T09:31:39.123Z,40.65
2023-04-19T09:32:20.210Z,40.64
2023-04-19T09:33:19.195Z,40.59
2023-04-19T09:34:19.056Z,40.48
2023-04-19T09:35:19.787Z,40.50
2023-04-19T09:36:19.021Z,40.52
2023-04-19T09:37:32.989Z,40.52
2023-04-19T09:38:20.123Z,40.51
2023-04-19T09:39:18.946Z,40.41
2023-04-19T09:40:19.003Z,40.40
2023-04-19T09:41:18.901Z,40.33
2023-04-19T09:42:30.758Z,40.25
2023-04-19T09:44:44.545Z,40.42
2023-04-19T09:45:29.195Z,40.48
2023-04-19T09:46:19.786Z,40.50
2023-04-19T09:47:18.761Z,40.50
2023-04-19T09:48:18.726Z,40.55
2023-04-19T09:49:25.068Z,40.54
2023-04-19T09:50:25.134Z,40.34
2023-04-19T09:51:20.012Z,40.42
2023-04-19T09:52:18.740Z,40.31
2023-04-19T09:53:18.704Z,40.33
2023-04-19T09:54:18.684Z,40.38
2023-04-19T09:55:27.085Z,40.31
2023-04-19T09:56:20.293Z,40.19
2023-04-19T09:57:18.617Z,40.41
2023-04-19T09:58:18.587Z,40.48
2023-04-19T09:59:21.175Z,40.52
2023-04-19T10:00:19.561Z,40.52
2023-04-19T10:01:18.618Z,40.50
2023-04-19T10:02:18.646Z,40.48
2023-04-19T10:03:18.533Z,40.58
2023-04-19T10:04:26.250Z,40.46
2023-04-19T10:05:21.552Z,40.89
2023-04-19T10:07:29.103Z,41.43
2023-04-19T10:08:19.336Z,41.60
2023-04-19T10:09:18.339Z,41.19
2023-04-19T10:10:21.001Z,41.04
2023-04-19T10:11:18.330Z,41.12
2023-04-19T10:13:21.134Z,41.31
2023-04-19T10:14:18.234Z,41.23
2023-04-19T10:15:18.214Z,41.39
2023-04-19T10:16:20.286Z,41.41
2023-04-19T10:17:18.443Z,41.32
2023-04-19T10:18:18.326Z,41.28
2023-04-19T10:19:18.312Z,41.30
2023-04-19T10:20:18.290Z,41.19
2023-04-19T10:21:18.281Z,41.09
2023-04-19T10:22:18.269Z,40.99
2023-04-19T10:23:18.268Z,40.93
2023-04-19T10:24:18.265Z,40.89
2023-04-19T10:25:18.243Z,40.97
2023-04-19T10:26:18.229Z,40.98
2023-04-19T10:27:19.729Z,41.01
2023-04-19T10:28:18.229Z,41.26
2023-04-19T10:29:18.245Z,41.20
2023-04-19T10:30:18.211Z,41.24
2023-04-19T10:31:18.236Z,41.23
2023-04-19T10:32:18.252Z,41.20
2023-04-19T10:33:18.177Z,41.29
2023-04-19T10:34:18.159Z,41.29
2023-04-19T10:35:18.161Z,41.33
2023-04-19T10:36:18.145Z,41.55
2023-04-19T10:37:18.134Z,41.56
2023-04-19T10:38:18.126Z,41.32
2023-04-19T10:39:18.106Z,41.31
2023-04-19T10:40:18.817Z,41.41
2023-04-19T10:41:19.841Z,41.54
2023-04-19T10:42:18.092Z,40.99
2023-04-19T10:43:18.074Z,41.12
2023-04-19T10:44:18.053Z,41.19
2023-04-19T10:45:18.046Z,41.11
2023-04-19T10:46:18.147Z,41.13
2023-04-19T10:47:18.106Z,41.55
2023-04-19T10:48:18.039Z,41.53
2023-04-19T10:49:18.170Z,41.70
2023-04-19T10:50:18.073Z,41.57
2023-04-19T10:51:18.061Z,41.52
2023-04-19T10:52:18.057Z,41.27
2023-04-19T10:53:18.055Z,41.30
2023-04-19T10:54:18.165Z,41.20
2023-04-19T10:55:18.046Z,40.94
2023-04-19T10:56:18.059Z,40.73
2023-04-19T10:57:18.037Z,40.69
2023-04-19T10:58:18.028Z,40.79
2023-04-19T10:59:18.246Z,40.76
2023-04-19T11:00:18.014Z,40.77
2023-04-19T11:01:18.064Z,41.32
2023-04-19T11:02:18.086Z,41.66
2023-04-19T11:03:18.106Z,41.97
2023-04-19T11:04:18.268Z,41.86
2023-04-19T11:05:20.222Z,41.89
2023-04-19T11:06:18.115Z,41.88
2023-04-19T11:07:18.116Z,41.69
2023-04-19T11:08:18.135Z,41.61
2023-04-19T11:09:18.102Z,41.62
2023-04-19T11:10:18.094Z,41.50
2023-04-19T11:11:18.090Z,41.53
2023-04-19T11:12:18.093Z,41.53
2023-04-19T11:13:18.055Z,41.44
2023-04-19T11:14:18.109Z,41.55
2023-04-19T11:15:18.037Z,41.69
2023-04-19T11:16:19.473Z,41.77
2023-04-19T11:17:17.993Z,41.78
2023-04-19T11:18:18.025Z,41.79
2023-04-19T11:19:18.294Z,41.15
2023-04-19T11:20:17.967Z,41.09
2023-04-19T11:21:17.973Z,41.01
2023-04-19T11:22:17.944Z,40.99
2023-04-19T11:23:17.931Z,40.95
2023-04-19T11:24:17.924Z,41.06
2023-04-19T11:25:17.913Z,41.25
2023-04-19T11:26:17.934Z,41.14
2023-04-19T11:27:17.904Z,41.10
2023-04-19T11:28:17.894Z,40.73
2023-04-19T11:29:18.194Z,41.04
2023-04-19T11:30:17.901Z,41.37
2023-04-19T11:31:17.888Z,41.36
2023-04-19T11:32:17.868Z,41.28
2023-04-19T11:33:17.927Z,41.23
2023-04-19T11:34:17.953Z,41.03
2023-04-19T11:35:17.831Z,40.94
2023-04-19T11:36:17.823Z,40.93
2023-04-19T11:37:17.814Z,41.00
2023-04-19T11:38:17.815Z,41.03
2023-04-19T11:39:17.796Z,41.06
2023-04-19T11:40:17.794Z,40.93
2023-04-19T11:41:17.786Z,40.87
2023-04-19T11:42:17.777Z,41.68
2023-04-19T11:43:17.773Z,41.52
2023-04-19T11:44:17.991Z,41.30
2023-04-19T11:45:28.529Z,41.15
2023-04-19T11:46:18.816Z,41.66
2023-04-19T11:47:17.707Z,41.66
2023-04-19T11:48:17.674Z,41.45
2023-04-19T11:49:17.663Z,41.42
2023-04-19T11:50:17.634Z,41.48
2023-04-19T11:51:17.614Z,41.45
2023-04-19T11:52:17.563Z,41.37
2023-04-19T11:53:17.570Z,41.30
2023-04-19T11:54:17.731Z,41.09
2023-04-19T11:55:17.500Z,40.96
2023-04-19T11:56:17.470Z,40.98
2023-04-19T11:57:17.441Z,40.86
2023-04-19T11:58:17.403Z,40.85
2023-04-19T11:59:17.372Z,40.80
2023-04-19T12:00:17.390Z,40.75
2023-04-19T12:01:17.345Z,40.75
2023-04-19T12:02:17.393Z,40.70
2023-04-19T12:03:17.376Z,40.67
2023-04-19T12:04:17.605Z,40.63
2023-04-19T12:05:17.363Z,40.54
2023-04-19T12:06:17.220Z,40.52
2023-04-19T12:07:17.196Z,40.55
2023-04-19T12:08:17.182Z,40.62
2023-04-19T12:09:17.145Z,40.52
2023-04-19T12:10:17.114Z,40.44
2023-04-19T12:11:17.102Z,40.36
2023-04-19T12:12:17.092Z,40.39
2023-04-19T12:13:17.079Z,40.35
2023-04-19T12:14:17.318Z,40.33
2023-04-19T12:15:17.080Z,40.27
2023-04-19T12:16:17.077Z,40.30
2023-04-19T12:17:17.069Z,40.37
2023-04-19T12:18:17.101Z,40.32
2023-04-19T12:19:17.252Z,40.32
2023-04-19T12:20:17.025Z,40.33
2023-04-19T12:21:17.023Z,40.33
2023-04-19T12:22:17.005Z,40.31
2023-04-19T12:23:17.008Z,40.30
2023-04-19T12:24:16.988Z,40.30
2023-04-19T12:25:16.988Z,40.29
2023-04-19T12:26:16.983Z,40.28
2023-04-19T12:27:16.985Z,40.24
2023-04-19T12:28:16.984Z,40.19
2023-04-19T12:29:17.000Z,40.18
2023-04-19T12:30:16.930Z,40.11
2023-04-19T12:31:16.930Z,40.14
2023-04-19T12:32:17.017Z,40.13
2023-04-19T12:33:16.924Z,40.16
2023-04-19T12:34:16.925Z,40.14
2023-04-19T12:35:16.902Z,40.11
2023-04-19T12:36:16.902Z,40.06
2023-04-19T12:37:16.901Z,40.04
2023-04-19T12:38:16.891Z,40.03
2023-04-19T12:39:17.073Z,39.97
2023-04-19T12:40:16.880Z,39.98
2023-04-19T12:41:16.850Z,39.94
2023-04-19T12:42:16.855Z,39.97
2023-04-19T12:43:16.843Z,39.92
2023-04-19T12:44:16.845Z,39.87
2023-04-19T12:45:16.852Z,39.83
2023-04-19T12:46:16.890Z,39.81
2023-04-19T12:47:16.839Z,39.79
2023-04-19T12:48:16.828Z,39.73
2023-04-19T12:49:17.008Z,39.77
2023-04-19T12:50:16.827Z,39.81
2023-04-19T12:51:16.817Z,39.79
2023-04-19T12:52:16.808Z,39.86
2023-04-19T12:53:16.802Z,39.78
2023-04-19T12:54:16.796Z,39.76
2023-04-19T12:55:16.800Z,39.78
2023-04-19T12:56:16.789Z,39.73
2023-04-19T12:57:16.775Z,39.71
2023-04-19T12:58:16.780Z,39.74
2023-04-19T12:59:16.965Z,39.73
2023-04-19T13:00:16.769Z,39.64